createdAt,value
2022-08-09T00:02:51.641Z,18.46
2022-08-09T00:08:31.951Z,18.35
2022-08-09T00:13:56.520Z,18.33
2022-08-09T00:19:20.299Z,18.28
2022-08-09T00:24:44.818Z,18.25
2022-08-09T00:30:25.502Z,18.22
2022-08-09T00:35:50.407Z,18.05
2022-08-09T00:44:10.586Z,17.98
2022-08-09T00:47:05.133Z,17.93
2022-08-09T00:52:31.117Z,17.89
2022-08-09T00:57:59.131Z,17.89
2022-08-09T01:03:28.352Z,17.79
2022-08-09T01:08:59.740Z,17.73
2022-08-09T01:14:30.544Z,17.81
2022-08-09T01:20:02.524Z,17.76
2022-08-09T01:25:41.459Z,17.74
2022-08-09T01:31:23.319Z,17.74
2022-08-09T01:36:57.630Z,17.62
2022-08-09T01:42:21.329Z,17.63
2022-08-09T01:47:46.242Z,17.56
2022-08-09T01:53:19.594Z,17.50
2022-08-09T01:58:43.740Z,17.57
2022-08-09T02:04:14.400Z,17.59
2022-08-09T02:09:42.401Z,17.56
2022-08-09T02:15:07.792Z,17.55
2022-08-09T02:20:34.191Z,17.55
2022-08-09T02:25:59.670Z,17.51
2022-08-09T02:31:26.025Z,17.45
2022-08-09T02:36:53.937Z,17.40
2022-08-09T02:42:24.743Z,17.34
2022-08-09T02:47:59.170Z,17.37
2022-08-09T02:53:27.585Z,17.35
2022-08-09T02:58:50.748Z,17.25
2022-08-09T03:04:19.287Z,17.16
2022-08-09T03:09:54.302Z,17.16
2022-08-09T03:15:22.835Z,16.98
2022-08-09T03:20:47.082Z,17.00
2022-08-09T03:26:11.569Z,16.77
2022-08-09T03:31:42.503Z,16.57
2022-08-09T03:37:55.548Z,16.86
2022-08-09T03:43:06.902Z,16.90
2022-08-09T03:48:31.417Z,16.81
2022-08-09T03:53:55.737Z,16.84
2022-08-09T03:59:27.187Z,16.88
2022-08-09T04:04:50.960Z,16.85
2022-08-09T04:10:14.126Z,16.84
2022-08-09T04:16:18.523Z,16.80
2022-08-09T04:21:27.902Z,16.78
2022-08-09T04:26:53.007Z,16.71
2022-08-09T04:32:31.387Z,16.69
2022-08-09T04:37:56.826Z,16.64
2022-08-09T04:43:20.254Z,16.70
2022-08-09T04:48:50.459Z,16.75
2022-08-09T04:54:21.592Z,16.80
2022-08-09T04:59:45.382Z,16.79
2022-08-09T05:05:14.735Z,16.75
2022-08-09T05:10:54.985Z,16.66
2022-08-09T05:16:18.189Z,16.64
2022-08-09T05:21:47.165Z,16.66
2022-08-09T05:27:20.757Z,16.74
2022-08-09T05:32:43.863Z,16.83
2022-08-09T05:38:08.365Z,16.80
2022-08-09T05:43:35.206Z,16.75
2022-08-09T05:48:59.551Z,17.02
2022-08-09T05:54:24.556Z,17.01
2022-08-09T05:59:47.656Z,17.21
2022-08-09T06:05:12.111Z,17.41
2022-08-09T06:10:40.439Z,17.56
2022-08-09T06:16:04.921Z,17.72
2022-08-09T06:21:28.434Z,17.82
2022-08-09T06:26:55.028Z,18.08
2022-08-09T06:32:53.093Z,18.27
2022-08-09T06:38:07.435Z,18.49
2022-08-09T06:43:34.100Z,18.85
2022-08-09T06:49:00.723Z,19.09
2022-08-09T06:54:23.799Z,19.60
2022-08-09T07:00:56.139Z,19.66
2022-08-09T07:06:02.781Z,20.20
2022-08-09T07:11:23.572Z,20.09
2022-08-09T07:16:55.362Z,21.36
2022-08-09T07:22:34.467Z,22.32
2022-08-09T07:27:58.759Z,22.60
2022-08-09T07:33:30.921Z,22.89
2022-08-09T07:39:12.062Z,22.97
2022-08-09T07:44:51.823Z,23.22
2022-08-09T07:50:18.400Z,22.63
2022-08-09T07:56:03.517Z,22.56
2022-08-09T08:01:33.968Z,22.77
2022-08-09T08:07:00.175Z,22.95
2022-08-09T08:12:33.713Z,22.89
2022-08-09T08:17:58.131Z,23.04
2022-08-09T08:23:23.260Z,23.03
2022-08-09T08:28:50.892Z,23.49
2022-08-09T08:34:14.206Z,23.50
2022-08-09T08:39:43.419Z,23.50
2022-08-09T08:45:11.691Z,23.56
2022-08-09T08:50:37.080Z,23.56
2022-08-09T08:56:02.951Z,23.45
2022-08-09T09:01:35.414Z,23.55
2022-08-09T09:07:11.017Z,24.06
2022-08-09T09:12:36.090Z,23.75
2022-08-09T09:17:59.393Z,24.04
2022-08-09T09:23:41.640Z,24.13
2022-08-09T09:29:17.103Z,24.45
2022-08-09T09:34:45.018Z,24.65
2022-08-09T09:40:09.874Z,24.57
2022-08-09T09:51:38.400Z,24.34
2022-08-09T09:58:03.291Z,24.37
2022-08-09T10:02:59.341Z,24.76
2022-08-09T10:08:27.962Z,24.80
2022-08-09T10:13:53.633Z,24.83
2022-08-09T10:19:18.357Z,25.01
2022-08-09T10:24:46.719Z,25.01
2022-08-09T10:36:01.129Z,24.98
2022-08-09T10:41:26.034Z,25.43
2022-08-09T10:48:13.401Z,25.68
2022-08-09T10:53:21.224Z,25.68
2022-08-09T10:58:49.445Z,25.70
2022-08-09T11:04:27.917Z,25.67
2022-08-09T11:09:59.772Z,25.67
2022-08-09T11:15:33.839Z,25.57
2022-08-09T11:21:01.926Z,25.55
2022-08-09T11:26:52.209Z,26.09
2022-08-09T11:32:50.676Z,26.00
2022-08-09T11:38:43.225Z,25.76
2022-08-09T11:44:49.744Z,25.83
2022-08-09T11:50:55.856Z,25.42
2022-08-09T11:56:08.402Z,25.27
2022-08-09T12:02:18.409Z,25.01
2022-08-09T12:07:20.735Z,25.52
2022-08-09T12:12:47.694Z,25.14
2022-08-09T12:18:29.775Z,25.40
2022-08-09T12:24:06.468Z,25.46
2022-08-09T12:29:52.487Z,25.17
2022-08-09T12:35:21.875Z,25.31
2022-08-09T12:40:46.741Z,25.22
2022-08-09T12:46:17.162Z,25.61
2022-08-09T12:52:01.282Z,25.41
2022-08-09T12:57:38.582Z,25.62
2022-08-09T13:03:04.995Z,26.06
2022-08-09T13:08:39.671Z,26.37
2022-08-09T13:14:41.697Z,26.51
2022-08-09T13:20:08.396Z,26.76
2022-08-09T13:25:42.332Z,26.81
2022-08-09T13:32:13.482Z,25.99
2022-08-09T13:36:52.181Z,25.75
2022-08-09T13:42:18.799Z,26.19
2022-08-09T13:47:49.221Z,26.31
2022-08-09T13:53:16.143Z,26.41
2022-08-09T13:58:41.153Z,26.56
2022-08-09T14:04:11.463Z,26.76
2022-08-09T14:09:35.660Z,26.66
2022-08-09T14:15:00.471Z,26.71
2022-08-09T14:20:29.089Z,26.89
2022-08-09T14:25:53.176Z,27.03
2022-08-09T14:31:18.375Z,26.79
2022-08-09T14:36:46.753Z,27.00
2022-08-09T14:42:12.422Z,27.35
2022-08-09T14:47:46.649Z,27.17
2022-08-09T14:53:13.773Z,26.89
2022-08-09T14:58:37.874Z,27.43
2022-08-09T15:04:09.781Z,27.48
2022-08-09T15:10:07.461Z,27.56
2022-08-09T15:15:18.551Z,27.85
2022-08-09T15:21:57.535Z,27.25
2022-08-09T15:26:31.167Z,27.12
2022-08-09T15:31:56.971Z,26.80
2022-08-09T15:37:57.252Z,27.54
2022-08-09T15:43:24.682Z,27.83
2022-08-09T15:48:58.950Z,27.52
2022-08-09T15:54:48.960Z,27.52
2022-08-09T16:00:21.890Z,27.77
2022-08-09T16:05:54.233Z,27.85
2022-08-09T16:11:21.885Z,28.26
2022-08-09T16:16:45.808Z,28.27
2022-08-09T16:22:14.787Z,28.19
2022-08-09T16:27:40.849Z,28.23
2022-08-09T16:33:10.037Z,28.20
2022-08-09T16:38:33.102Z,27.83
2022-08-09T16:43:59.547Z,27.81
2022-08-09T16:50:31.645Z,27.79
2022-08-09T16:55:15.578Z,27.77
2022-08-09T17:00:44.204Z,27.64
2022-08-09T17:06:28.798Z,27.77
2022-08-09T17:11:53.317Z,27.46
2022-08-09T17:17:26.707Z,27.26
2022-08-09T17:22:52.550Z,27.01
2022-08-09T17:28:16.809Z,26.76
2022-08-09T17:33:45.727Z,26.83
2022-08-09T17:39:25.149Z,26.61
2022-08-09T17:44:49.699Z,26.38
2022-08-09T17:50:25.042Z,26.29
2022-08-09T17:56:03.241Z,26.41
2022-08-09T18:02:03.314Z,25.91
2022-08-09T18:07:23.285Z,26.00
2022-08-09T18:13:53.574Z,25.85
2022-08-09T18:18:32.706Z,25.74
2022-08-09T18:24:09.706Z,25.62
2022-08-09T18:30:41.448Z,25.48
2022-08-09T18:35:19.382Z,25.29
2022-08-09T18:41:06.353Z,25.28
2022-08-09T18:46:51.309Z,25.21
2022-08-09T18:52:18.722Z,25.06
2022-08-09T18:57:56.319Z,24.98
2022-08-09T19:03:19.671Z,24.68
2022-08-09T19:08:42.866Z,24.62
2022-08-09T19:14:24.462Z,24.44
2022-08-09T19:19:58.692Z,24.24
2022-08-09T19:25:42.545Z,24.05
2022-08-09T19:31:09.112Z,23.92
2022-08-09T19:36:32.860Z,23.81
2022-08-09T19:41:56.703Z,23.63
2022-08-09T19:47:26.931Z,23.50
2022-08-09T19:52:52.125Z,23.37
2022-08-09T19:58:16.056Z,23.10
2022-08-09T20:04:16.995Z,23.11
2022-08-09T20:09:44.827Z,23.05
2022-08-09T20:16:36.349Z,22.98
2022-08-09T20:21:00.325Z,22.84
2022-08-09T20:26:25.331Z,22.50
2022-08-09T20:32:17.104Z,22.39
2022-08-09T20:38:18.492Z,22.24
2022-08-09T20:43:25.279Z,22.15
2022-08-09T20:48:49.636Z,22.05
2022-08-09T20:54:17.091Z,21.99
2022-08-09T21:00:20.799Z,21.92
2022-08-09T21:05:54.482Z,21.82
2022-08-09T21:16:57.340Z,21.51
2022-08-09T21:22:36.099Z,21.54
2022-08-09T21:28:04.239Z,21.49
2022-08-09T21:33:36.188Z,21.44
2022-08-09T21:39:00.096Z,21.38
2022-08-09T21:44:33.371Z,21.30
2022-08-09T21:49:57.993Z,21.27
2022-08-09T21:55:23.101Z,21.13
2022-08-09T22:00:48.713Z,21.15
2022-08-09T22:06:15.565Z,21.12
2022-08-09T22:12:09.478Z,21.13
2022-08-09T22:17:23.592Z,20.99
2022-08-09T22:22:48.466Z,20.95
2022-08-09T22:28:11.769Z,20.92
2022-08-09T22:39:57.135Z,20.69
2022-08-09T22:48:16.426Z,20.63
2022-08-09T22:50:52.763Z,20.44
2022-08-09T22:56:33.399Z,20.57
2022-08-09T23:01:57.992Z,20.47
2022-08-09T23:08:27.631Z,20.45
2022-08-09T23:13:23.937Z,20.32
2022-08-09T23:18:47.172Z,20.29
2022-08-09T23:24:11.748Z,20.19
2022-08-09T23:29:34.879Z,20.11
2022-08-09T23:34:57.971Z,19.99
2022-08-09T23:40:22.804Z,19.85
2022-08-09T23:45:45.887Z,19.70
2022-08-09T23:51:09.212Z,19.65
2022-08-09T23:56:53.147Z,19.55
